Latest Weather Observations for Geelong Racecourse

IDV60801

Issued at 9:32 pm EDT Thursday 23 November 2017 (issued every 30 minutes, with the page automatically refreshed every 10 minutes)

About weather observations | Map of weather stations | Latest weather observations for VIC | Other Formats
Station Details ID: 087184 Name: GEELONG RACECOURSE Lat: -38.17 Lon: 144.38 Height: 12.9 m
Data from the previous 72 hours. | See also: Recent months at Geelong Racecourse
Date/Time
EDT
Temp
°C
App
Temp
°C
Dew
Point
°C
Rel
Hum
%
Delta-T
°C
Wind Press
QNH
hPa
Press
MSL
hPa
Rain since
9am
mm
Dir  Spd
km/h
Gust
km/h
Spd
kts
Gust
kts
23/09:30pm 19.8 18.9 17.8 88 1.2 SW 19 30 10 16 1010.6 1010.6 0.2
23/09:00pm 19.9 21.8 18.6 92 0.8 SSE 6 9 3 5 1009.7 1009.7 0.2
23/08:30pm 20.3 19.8 16.9 81 2.1 SE 15 26 8 14 1009.4 1009.4 0.2
23/08:11pm 19.7 19.3 18.0 90 1.0 SSW 17 33 9 18 1009.6 1009.6 0.0
23/08:00pm 20.5 20.3 16.7 79 2.3 SW 13 22 7 12 1009.8 1009.8 0.0
23/07:30pm 21.5 20.6 15.8 70 3.4 WSW 15 20 8 11 1009.7 1009.7 0.0
23/07:00pm 20.8 20.8 16.2 75 2.8 S 11 17 6 9 1008.5 1008.5 0.0
23/06:30pm 21.5 20.2 16.7 74 2.9 SSW 19 26 10 14 1008.6 1008.6 0.0
23/06:00pm 21.8 20.0 15.6 68 3.7 SSW 19 22 10 12 1008.5 1008.5 0.0
23/05:30pm 24.6 23.0 16.1 59 5.2 S 19 24 10 13 1008.3 1008.3 0.0
23/05:00pm 23.8 22.4 16.6 64 4.4 S 19 24 10 13 1008.5 1008.5 0.0
23/04:30pm 26.9 25.3 16.5 53 6.4 S 20 28 11 15 1008.3 1008.3 0.0
23/04:00pm 29.5 28.3 12.9 36 9.8 SSE 11 17 6 9 1008.3 1008.3 0.0
23/03:30pm 29.6 27.9 9.7 29 11.2 ESE 9 13 5 7 1008.5 1008.5 0.0
23/03:00pm 26.4 26.2 15.8 52 6.5 SE 11 19 6 10 1009.4 1009.4 0.0
23/02:30pm 24.5 22.9 17.5 65 4.4 SSE 22 32 12 17 1009.5 1009.5 0.0
23/02:19pm 26.0 24.1 16.8 57 5.7 S 22 37 12 20 1009.5 1009.5 0.0
23/02:00pm 31.0 30.2 12.8 32 10.8 NE 9 28 5 15 1009.6 1009.6 0.0
23/01:30pm 31.6 31.0 13.4 33 10.9 NNW 9 17 5 9 1009.5 1009.5 0.0
23/01:00pm 30.5 30.7 12.9 34 10.5 NW 4 7 2 4 1009.7 1009.7 0.0
23/12:30pm 29.3 29.1 13.1 37 9.6 NNE 6 11 3 6 1010.3 1010.3 0.0
23/12:00pm 27.4 26.5 13.7 43 8.1 NE 11 15 6 8 1010.6 1010.6 0.0
23/11:30am 26.7 26.5 14.8 48 7.2 NE 9 15 5 8 1010.9 1010.9 0.0
23/11:00am 25.3 26.2 15.0 53 6.2 NE 4 9 2 5 1011.1 1011.1 0.0
23/10:30am 24.1 25.4 17.1 65 4.3 SSE 6 7 3 4 1011.2 1011.2 0.0
23/10:00am 22.0 23.1 16.5 71 3.3 SSE 6 9 3 5 1011.5 1011.5 0.0
23/09:30am 21.2 22.7 18.0 82 2.0 SSE 7 11 4 6 1011.8 1011.8 0.0
23/09:00am 19.9 21.6 18.6 92 0.8 SSE 7 11 4 6 1011.9 1011.9 0.0
23/08:30am 19.0 19.7 18.0 94 0.6 S 11 15 6 8 1011.9 1011.9 0.0
23/08:00am 18.1 19.0 17.5 96 0.4 S 9 13 5 7 1011.9 1011.9 0.0
23/07:30am 17.3 17.1 16.8 97 0.3 SSW 13 15 7 8 1011.7 1011.7 0.0
23/07:00am 16.3 16.5 15.8 97 0.3 SSW 9 11 5 6 1011.8 1011.8 0.0
23/06:30am 15.1 15.4 14.6 97 0.3 SSW 6 6 3 3 1011.7 1011.7 0.0
23/06:00am 14.7 14.7 14.2 97 0.3 SW 7 9 4 5 1011.4 1011.4 0.0
23/05:30am 14.7 14.7 14.2 97 0.3 SSW 7 9 4 5 1011.2 1011.2 0.0
23/05:00am 14.9 15.0 14.4 97 0.3 SW 7 9 4 5 1011.2 1011.2 0.0
23/04:30am 14.5 14.4 13.9 96 0.3 SW 7 9 4 5 1011.2 1011.2 0.0
23/04:00am 15.0 15.1 14.4 96 0.3 SSW 7 9 4 5 1011.4 1011.4 0.0
23/03:30am 15.2 15.4 14.6 96 0.3 SSW 7 9 4 5 1011.5 1011.5 0.0
23/03:00am 15.4 15.2 14.8 96 0.3 SW 9 11 5 6 1011.7 1011.7 0.0
23/02:30am 15.6 15.5 15.0 96 0.3 SSW 9 13 5 7 1011.9 1011.9 0.0
23/02:00am 15.5 15.4 14.9 96 0.3 SSW 9 13 5 7 1012.0 1012.0 0.0
23/01:30am 15.5 15.4 14.9 96 0.3 SSW 9 13 5 7 1012.3 1012.3 0.0
23/01:00am 15.7 15.6 14.9 95 0.5 SW 9 11 5 6 1012.6 1012.6 0.0
23/12:30am 15.8 15.7 15.0 95 0.5 SSW 9 13 5 7 1012.8 1012.8 0.0
23/12:00am 16.1 16.4 15.1 94 0.6 SSW 7 11 4 6 1013.1 1013.1 0.0
 
Date/Time
EDT
Temp
°C
App
Temp
°C
Dew
Point
°C
Rel
Hum
%
Delta-T
°C
Wind Press
QNH
hPa
Press
MSL
hPa
Rain since
9am
mm
Dir  Spd
km/h
Gust
km/h
Spd
kts
Gust
kts
22/11:30pm 16.5 16.6 15.5 94 0.6 SW 9 13 5 7 1013.1 1013.1 0.0
22/11:00pm 16.7 16.5 15.7 94 0.6 SSW 11 15 6 8 1013.2 1013.2 0.0
22/10:30pm 17.1 17.0 16.0 93 0.6 SSW 11 15 6 8 1013.5 1013.5 0.0
22/10:00pm 17.7 17.8 16.6 93 0.7 SSW 11 15 6 8 1013.3 1013.3 0.0
22/09:30pm 18.0 17.9 16.9 93 0.7 SSW 13 17 7 9 1013.1 1013.1 0.0
22/09:00pm 18.5 18.1 17.2 92 0.8 SSW 15 20 8 11 1013.1 1013.1 0.0
22/08:30pm 19.2 17.9 14.9 76 2.5 SSW 15 20 8 11 1013.1 1013.1 0.0
22/08:00pm 20.2 18.5 14.6 70 3.3 SSW 17 22 9 12 1013.1 1013.1 0.0
22/07:30pm 21.3 19.5 14.5 65 4.0 SSW 17 20 9 11 1012.9 1012.9 0.0
22/07:00pm 24.3 21.1 11.3 44 7.3 S 19 24 10 13 1012.7 1012.7 0.0
22/06:30pm 26.1 23.2 11.1 39 8.5 SSE 17 24 9 13 1012.7 1012.7 0.0
22/06:00pm 27.0 24.0 11.9 39 8.7 SE 19 28 10 15 1012.4 1012.4 0.0
22/05:30pm 27.9 24.8 11.5 36 9.4 SE 19 28 10 15 1012.4 1012.4 0.0
22/05:00pm 28.4 25.4 12.7 38 9.2 SE 20 26 11 14 1012.5 1012.5 0.0
22/04:30pm 28.7 25.1 11.7 35 9.8 SE 22 32 12 17 1012.7 1012.7 0.0
22/04:00pm 29.7 26.7 12.6 35 10.1 SSE 20 28 11 15 1012.8 1012.8 0.0
22/03:30pm 31.7 29.1 12.0 30 11.6 SE 17 24 9 13 1013.0 1013.0 0.0
22/03:00pm 32.5 29.4 7.4 21 13.8 ENE 13 20 7 11 1013.3 1013.3 0.0
22/02:30pm 32.2 27.8 4.9 18 14.4 ENE 17 24 9 13 1013.7 1013.7 0.0
22/02:00pm 32.0 27.8 5.5 19 14.1 ENE 17 24 9 13 1014.0 1014.0 0.0
22/01:30pm 31.7 27.6 6.0 20 13.7 NE 17 22 9 12 1014.4 1014.4 0.0
22/01:00pm 31.6 27.6 6.6 21 13.5 ENE 17 22 9 12 1014.7 1014.7 0.0
22/12:30pm 31.1 28.0 10.4 28 11.8 ENE 17 22 9 12 1015.0 1015.0 0.0
22/12:00pm 30.9 29.0 11.8 31 11.2 NE 13 20 7 11 1015.1 1015.1 0.0
22/11:30am 30.6 29.5 13.0 34 10.5 NE 11 17 6 9 1015.3 1015.3 0.0
22/11:00am 29.6 30.2 15.7 43 8.6 NE 7 11 4 6 1015.4 1015.4 0.0
22/10:30am 27.2 27.8 16.8 53 6.5 NNE 9 13 5 7 1015.6 1015.6 0.0
22/10:00am 26.3 26.9 16.8 56 5.9 NNE 9 13 5 7 1015.7 1015.7 0.0
22/09:30am 24.1 24.4 15.9 60 5.0 NNE 9 13 5 7 1016.1 1016.1 0.0
22/09:00am 23.4 23.1 16.4 64 4.3 NNE 13 19 7 10 1016.3 1016.3 0.0
22/08:30am 22.8 23.0 16.8 69 3.7 NE 11 19 6 10 1016.3 1016.3 0.0
22/08:00am 22.4 23.1 17.1 72 3.3 NE 9 15 5 8 1016.3 1016.3 0.0
22/07:30am 21.2 23.1 18.9 87 1.4 NE 7 9 4 5 1016.0 1016.0 0.0
22/07:00am 18.9 21.8 18.1 95 0.5 CALM 0 0 0 0 1016.0 1016.0 0.0
22/06:30am 17.6 19.9 16.8 95 0.5 CALM 0 2 0 1 1015.9 1015.9 0.0
22/06:00am 16.8 18.3 15.8 94 0.6 N 2 2 1 1 1015.8 1015.8 0.0
22/05:30am 17.8 20.1 16.7 93 0.7 CALM 0 0 0 0 1015.7 1015.7 0.0
22/05:00am 18.8 21.0 17.5 92 0.8 N 2 4 1 2 1015.6 1015.6 0.0
22/04:30am 19.5 20.2 16.2 81 2.0 ENE 7 9 4 5 1015.5 1015.5 0.0
22/04:00am 20.2 20.4 14.8 71 3.2 ENE 7 9 4 5 1015.6 1015.6 0.0
22/03:30am 21.0 20.6 14.2 65 4.0 ENE 9 17 5 9 1015.7 1015.7 0.0
22/03:00am 21.3 20.8 14.9 67 3.8 NE 11 19 6 10 1015.9 1015.9 0.0
22/02:30am 21.4 21.6 15.7 70 3.4 NNE 9 15 5 8 1016.0 1016.0 0.0
22/02:00am 21.8 22.1 15.9 69 3.5 NNE 9 15 5 8 1016.2 1016.2 0.0
22/01:30am 20.6 21.3 15.6 73 3.0 NNE 6 11 3 6 1016.4 1016.4 0.0
22/01:00am 20.3 20.6 13.5 65 3.9 W 4 6 2 3 1016.6 1016.6 0.0
22/12:30am 20.3 21.0 13.3 64 4.0 W 2 4 1 2 1016.7 1016.7 0.0
22/12:00am 21.0 21.6 13.2 61 4.5 WSW 2 6 1 3 1016.8 1016.8 0.0
 
Date/Time
EDT
Temp
°C
App
Temp
°C
Dew
Point
°C
Rel
Hum
%
Delta-T
°C
Wind Press
QNH
hPa
Press
MSL
hPa
Rain since
9am
mm
Dir  Spd
km/h
Gust
km/h
Spd
kts
Gust
kts
21/11:30pm 23.4 23.6 13.0 52 6.0 SSE 4 7 2 4 1016.9 1016.9 0.0
21/11:00pm 23.9 24.2 13.4 51 6.1 E 4 9 2 5 1017.1 1017.1 0.0
21/10:30pm 23.3 23.8 12.9 52 6.0 WSW 2 6 1 3 1017.3 1017.3 0.0
21/10:00pm 23.0 22.9 13.2 54 5.6 SSW 6 7 3 4 1017.2 1017.2 0.0
21/09:30pm 24.7 24.6 12.0 45 7.2 SE 4 13 2 7 1017.0 1017.0 0.0
21/09:00pm 23.9 23.4 11.9 47 6.8 SW 6 7 3 4 1016.9 1016.9 0.0
21/08:30pm 24.9 24.6 11.5 43 7.6 SW 4 6 2 3 1016.8 1016.8 0.0
21/08:00pm 26.7 25.4 11.2 38 8.8 SE 9 15 5 8 1016.7 1016.7 0.0
21/07:30pm 27.9 26.0 11.9 37 9.2 ESE 13 22 7 12 1016.5 1016.5 0.0
21/07:00pm 29.3 27.2 12.3 35 9.9 ESE 15 26 8 14 1016.4 1016.4 0.0
21/06:30pm 30.1 28.0 12.5 34 10.4 ESE 15 24 8 13 1016.2 1016.2 0.0
21/06:00pm 29.7 27.5 12.2 34 10.2 SE 15 22 8 12 1016.2 1016.2 0.0
21/05:30pm 29.9 27.4 12.3 33 10.3 SE 17 24 9 13 1016.4 1016.4 0.0
21/05:00pm 30.4 28.1 11.9 32 10.8 SE 15 20 8 11 1016.7 1016.7 0.0
21/04:30pm 30.6 27.4 10.0 28 11.7 ESE 17 24 9 13 1016.7 1016.7 0.0
21/04:00pm 30.4 26.8 9.8 28 11.6 SE 19 28 10 15 1016.9 1016.9 0.0
21/03:30pm 31.1 29.1 11.5 30 11.4 E 13 24 7 13 1017.2 1017.2 0.0
21/03:00pm 32.4 31.1 9.9 25 12.8 ENE 7 15 4 8 1017.5 1017.5 0.0
21/02:30pm 31.6 30.5 9.8 26 12.4 NE 6 9 3 5 1018.0 1018.0 0.0
21/02:00pm 30.6 29.6 11.1 30 11.2 NE 7 11 4 6 1018.3 1018.3 0.0
21/01:30pm 30.1 28.2 10.6 30 11.1 ENE 11 17 6 9 1018.7 1018.7 0.0
21/01:00pm 29.6 27.1 9.7 29 11.1 ENE 13 17 7 9 1019.0 1019.0 0.0
21/12:30pm 29.1 27.9 12.9 37 9.6 NE 11 17 6 9 1019.3 1019.3 0.0
21/12:00pm 30.3 29.5 11.8 32 10.8 ENE 7 15 4 8 1019.5 1019.5 0.0
21/11:30am 28.9 28.7 13.6 39 9.1 ENE 7 13 4 7 1019.8 1019.8 0.0
21/11:00am 27.1 27.3 14.1 44 7.7 ENE 6 9 3 5 1020.2 1020.2 0.0
21/10:30am 26.1 26.3 14.2 48 7.1 NNE 6 11 3 6 1020.4 1020.4 0.0
21/10:00am 25.0 25.7 15.6 56 5.7 NNE 6 9 3 5 1020.6 1020.6 0.0
21/09:30am 23.6 24.9 17.1 67 4.0 NE 6 9 3 5 1020.7 1020.7 0.0
21/09:00am 22.0 23.5 17.6 76 2.7 NNE 6 9 3 5 1020.8 1020.8 0.0
21/08:30am 21.4 25.3 20.4 94 0.6 CALM 0 0 0 0 1020.9 1020.9 0.0
21/08:00am 18.9 21.8 18.2 96 0.4 CALM 0 0 0 0 1020.8 1020.8 0.0
21/07:30am 17.6 20.0 17.0 96 0.4 CALM 0 2 0 1 1020.7 1020.7 0.0
21/07:00am 17.3 19.6 16.8 97 0.3 CALM 0 2 0 1 1020.5 1020.5 0.0
21/06:30am 15.2 15.9 14.6 96 0.3 WNW 4 4 2 2 1020.1 1020.1 0.0
21/06:00am 15.8 17.1 15.2 96 0.3 SW 2 4 1 2 1019.8 1019.8 0.0
21/05:30am 15.6 16.8 15.0 96 0.3 SW 2 2 1 1 1019.5 1019.5 0.0
21/05:00am 15.4 16.2 14.8 96 0.3 SW 4 4 2 2 1019.3 1019.3 0.0
21/04:30am 15.9 17.3 15.3 96 0.3 SW 2 4 1 2 1019.3 1019.3 0.0
21/04:00am 16.4 17.6 15.8 96 0.4 SW 4 4 2 2 1019.6 1019.6 0.0
21/03:30am 16.3 17.0 15.5 95 0.5 SSW 6 6 3 3 1019.5 1019.5 0.0
21/03:00am 16.7 17.3 15.9 95 0.5 SSW 7 9 4 5 1019.5 1019.5 0.0
21/02:30am 16.7 17.5 15.9 95 0.5 SSW 6 7 3 4 1019.7 1019.7 0.0
21/02:00am 16.7 17.4 15.7 94 0.6 SSW 6 7 3 4 1019.8 1019.8 0.0
21/01:30am 17.1 18.0 16.0 93 0.6 SSW 6 9 3 5 1020.0 1020.0 0.0
21/01:00am 17.4 18.4 16.3 93 0.7 SSW 6 6 3 3 1020.1 1020.1 0.0
21/12:30am 17.6 18.6 16.3 92 0.8 SSW 6 7 3 4 1020.4 1020.4 0.0
21/12:00am 18.1 19.7 16.8 92 0.8 SW 4 6 2 3 1020.6 1020.6 0.0
 
Date/Time
EDT
Temp
°C
App
Temp
°C
Dew
Point
°C
Rel
Hum
%
Delta-T
°C
Wind Press
QNH
hPa
Press
MSL
hPa
Rain since
9am
mm
Dir  Spd
km/h
Gust
km/h
Spd
kts
Gust
kts
20/11:30pm 18.1 19.1 16.8 92 0.8 SSW 7 9 4 5 1020.6 1020.6 0.0
20/11:00pm 18.6 20.1 16.6 88 1.2 SW 4 6 2 3 1020.8 1020.8 0.0
20/10:30pm 18.6 19.3 15.5 82 1.8 WSW 6 7 3 4 1020.9 1020.9 0.0
20/10:00pm 19.0 19.0 15.3 79 2.2 SW 9 11 5 6 1020.9 1020.9 0.0

Other Formats:

Comma delimited format used in spreadsheet applications
http://www.bom.gov.au/fwo/IDV60801/IDV60801.94857.axf

JavaScript Object Notation format (JSON) in row-major order
http://www.bom.gov.au/fwo/IDV60801/IDV60801.94857.json